Nearby METAR Reports

Here are local weather reports from nearby weather stations and airports.

KHFD - Hartford/Brainar, Connecticut, USA
Distance from station: NE 5mi, 8km
Updated: Sun, 09/25/22 4:53am EDT
Clear
Clear
 Wind from W
Wind: W 3 mph , 6 km/h
Temperature: 52°F , 11°C
Dew Point: 46°F , 8°C
Humidity: 82%
Barometer: 29.84 inHg , 1010.5 hPa
Clouds: Clear
Visibility: 10 miles , 16 km
2022/09/25 08:53 KHFD 250853Z AUTO 26003KT 10SM CLR 11/08 A2984 RMK AO2 SLP105 T01060083 56011
KMMK - Meriden, Connecticut, USA
Distance from station: SSW 13mi, 21km
Updated: Sun, 09/25/22 4:53am EDT
Clear
Clear
 Wind from calm
Wind: Calm
Temperature: 46°F , 8°C
Dew Point: 45°F , 7°C
Humidity: 93%
Barometer: 29.85 inHg , 1010.8 hPa
Clouds: Clear
Visibility: 10 miles , 16 km
2022/09/25 08:53 KMMK 250853Z AUTO 00000KT 10SM CLR 08/07 A2985 RMK AO2 SLP108 T00780067 55008
 
KBDL - Windsor Locks, Connecticut, USA
Distance from station: N 17mi, 28km
Updated: Sun, 09/25/22 4:51am EDT
Partly cloudy
Partly cloudy
 Wind from calm
Wind: Calm
Temperature: 48°F , 9°C
Dew Point: 45°F , 7°C
Humidity: 87%
Barometer: 29.84 inHg , 1010.5 hPa
Clouds: Partly cloudy
Visibility: 10 miles , 16 km
Cloud details: Partly cloudy 13000 ft
Partly cloudy 17000 ft
2022/09/25 08:51 KBDL 250851Z 00000KT 10SM SCT130 SCT170 09/07 A2984 RMK AO2 SLP103 T00890072 56012
KSNC - Chester, Connecticut, USA
Distance from station: SSE 24mi, 38km
Updated: Sun, 09/25/22 4:55am EDT
Mostly cloudy
Mostly cloudy
 Wind from calm
Wind: Calm
Temperature: 52°F , 11°C
Dew Point: 50°F , 10°C
Humidity: 94%
Barometer: 29.85 inHg , 1010.8 hPa
Clouds: Mostly cloudy
Visibility: 10 miles , 16 km
Cloud details: Mostly cloudy 7500 ft
2022/09/25 08:55 KSNC 250855Z AUTO 00000KT 10SM BKN075 11/10 A2985 RMK AO2
 
KOXC - Oxford/Waterbury, Connecticut, USA
Distance from station: SW 26mi, 42km
Updated: Sun, 09/25/22 4:51am EDT
Partly cloudy
Partly cloudy
 Wind from calm
Wind: Calm
Temperature: 46°F , 8°C
Dew Point: 46°F , 8°C
Humidity: 100%
Barometer: 29.85 inHg , 1010.8 hPa
Clouds: Partly cloudy
Visibility: 10 miles , 16 km
Cloud details: Partly cloudy 7500 ft
2022/09/25 08:51 KOXC 250851Z AUTO 00000KT 10SM SCT075 08/08 A2985 RMK AO2 SLP120 T00830078 56009
KIJD - Willimantic, Connecticut, USA
Distance from station: E 28mi, 45km
Updated: Sun, 09/25/22 4:52am EDT
Few Clouds
Few Clouds
 Wind from calm
Wind: Calm
Temperature: 45°F , 7°C
Dew Point: 45°F , 7°C
Humidity: 100%
Barometer: 29.85 inHg , 1010.8 hPa
Clouds: Few Clouds
Visibility: 10 miles , 16 km
Cloud details: Few Clouds 11000 ft
2022/09/25 08:52 KIJD 250852Z AUTO 00000KT 10SM FEW110 07/07 A2985 RMK AO2 SLP107 T00670067 58015
 
KHVN - New Haven/Tweed, Connecticut, USA
Distance from station: SSW 30mi, 48km
Updated: Sun, 09/25/22 4:53am EDT
Overcast
Overcast
 Wind from calm
Wind: Calm
Temperature: 54°F , 12°C
Dew Point: 52°F , 11°C
Humidity: 94%
Barometer: 29.85 inHg , 1010.8 hPa
Clouds: Overcast
Visibility: 10 miles , 16 km
Cloud details: Overcast 8000 ft
2022/09/25 08:53 KHVN 250853Z AUTO 00000KT 10SM OVC080 12/11 A2985 RMK AO2 SLP108 T01220106 56008 $
KBAF - Westfield, Massachusetts, USA
Distance from station: 0 33mi, 54km
Updated: Sun, 09/25/22 4:53am EDT
Few Clouds
Few Clouds
 Wind from calm
Wind: Calm
Temperature: 45°F , 7°C
Dew Point: 43°F , 6°C
Humidity: 93%
Barometer: 29.84 inHg , 1010.5 hPa
Clouds: Few Clouds
Visibility: 10 miles , 16 km
Cloud details: Few Clouds 12000 ft
2022/09/25 08:53 KBAF 250853Z AUTO 00000KT 10SM FEW120 07/06 A2984 RMK AO2 SLP106 T00720061 55009
 
KCEF - Chicopee/Westove, Massachusetts, USA
Distance from station: NNE 37mi, 60km
Updated: Sun, 09/25/22 4:55am EDT
Mostly cloudy
Mostly cloudy
 Wind from calm
Wind: Calm
Temperature: 45°F , 7°C
Dew Point: 45°F , 7°C
Humidity: 100%
Barometer: 29.81 inHg , 1009.5 hPa
Clouds: Mostly cloudy
Visibility: 10 miles , 16 km
Cloud details: Mostly cloudy 12000 ft
2022/09/25 08:55 KCEF 250855Z AUTO 00000KT 10SM BKN120 07/07 A2981 RMK AO2 SLP101 T00690068 56011
KBDR - Bridgeport, Connecticut, USA
Distance from station: SSW 42mi, 67km
Updated: Sun, 09/25/22 4:52am EDT
Few Clouds
Few Clouds
 Wind from calm
Wind: Calm
Temperature: 55°F , 13°C
Dew Point: 48°F , 9°C
Humidity: 77%
Barometer: 29.84 inHg , 1010.5 hPa
Clouds: Few Clouds
Visibility: 10 miles , 16 km
Cloud details: Few Clouds 8000 ft
2022/09/25 08:52 KBDR 250852Z AUTO 00000KT 10SM FEW080 13/09 A2984 RMK AO2 SLP106 T01330089 56009
 
KGON - Groton/New Londo, Connecticut, USA
Distance from station: SE 42mi, 68km
Updated: Sun, 09/25/22 4:56am EDT
Partly cloudy
Partly cloudy
 Wind from calm
Wind: Calm
Temperature: 52°F , 11°C
Dew Point: 48°F , 9°C
Humidity: 88%
Barometer: 29.84 inHg , 1010.5 hPa
Clouds: Partly cloudy
Visibility: 10 miles , 16 km
Cloud details: Partly cloudy 11000 ft
2022/09/25 08:56 KGON 250856Z AUTO 00000KT 10SM SCT110 11/09 A2984 RMK AO2 SLP104 T011100
KDXR - Danbury, Connecticut, USA
Distance from station: WSW 45mi, 73km
Updated: Sun, 09/25/22 4:53am EDT
Clear
Clear
 Wind from calm
Wind: Calm
Temperature: 52°F , 11°C
Dew Point: 48°F , 9°C
Humidity: 88%
Barometer: 29.85 inHg , 1010.8 hPa
Clouds: Clear
Visibility: 10 miles , 16 km
2022/09/25 08:53 KDXR 250853Z AUTO 00000KT 10SM CLR 11/09 A2985 RMK AO2 SLP106 6//// T01060089 56012 PNO $